PTLCS SBSV-SBMO
Flight info
| Callsign | PTLCS |
|---|---|
| Flight time | 1h 20m |
| Altitude | 17000 |
| Route | ARURU Z35 MCE |
| Aircraft | BT36/L-BDFGLORY/S |
Departure
| Time | 2026-04-21 14:16 |
|---|---|
| Airport | Deputado Luiz Eduardo Magalhães International Airport (SBSV) |
Arrival
| Time | 2026-04-21 15:37 |
|---|---|
| Airport | Zumbi dos Palmares International Airport (SBMO) |
| Time | Latitude | Longitude | Altitude | Speed | Heading |
|---|---|---|---|---|---|
| 2026-04-21 13:52 | -12.91034 | -38.34579 | 39 ft | 0 kts | 143° |
| 2026-04-21 13:56 | -12.91033 | -38.34579 | 39 ft | 0 kts | 143° |
| 2026-04-21 13:57 | -12.91033 | -38.34580 | 39 ft | 0 kts | 143° |
| 2026-04-21 14:03 | -12.91032 | -38.34580 | 39 ft | 0 kts | 143° |
| 2026-04-21 14:05 | -12.91043 | -38.34567 | 38 ft | 5 kts | 101° |
| 2026-04-21 14:06 | -12.91012 | -38.34520 | 38 ft | 11 kts | 69° |
| 2026-04-21 14:06 | -12.90968 | -38.34446 | 38 ft | 12 kts | 53° |
| 2026-04-21 14:06 | -12.90919 | -38.34378 | 39 ft | 8 kts | 53° |
| 2026-04-21 14:06 | -12.90915 | -38.34372 | 39 ft | 0 kts | 53° |
| 2026-04-21 14:13 | -12.90915 | -38.34373 | 39 ft | 0 kts | 53° |
| 2026-04-21 14:14 | -12.90906 | -38.34359 | 40 ft | 6 kts | 60° |
| 2026-04-21 14:14 | -12.90870 | -38.34318 | 42 ft | 9 kts | 14° |
| 2026-04-21 14:15 | -12.90810 | -38.34332 | 42 ft | 10 kts | 341° |
| 2026-04-21 14:15 | -12.90799 | -38.34361 | 42 ft | 7 kts | 159° |
| 2026-04-21 14:15 | -12.90801 | -38.34359 | 42 ft | 0 kts | 148° |
| 2026-04-21 14:16 | -12.90848 | -38.34322 | 42 ft | 40 kts | 142° |
| 2026-04-21 14:16 | -12.91260 | -38.34013 | 155 ft | 96 kts | 142° |
| 2026-04-21 14:16 | -12.91879 | -38.33594 | 668 ft | 111 kts | 145° |
| 2026-04-21 14:16 | -12.92521 | -38.33111 | 1283 ft | 121 kts | 143° |
| 2026-04-21 14:17 | -12.93136 | -38.32538 | 2146 ft | 114 kts | 118° |
| 2026-04-21 14:17 | -12.92908 | -38.31772 | 2942 ft | 140 kts | 52° |
| 2026-04-21 14:17 | -12.92063 | -38.31063 | 3469 ft | 168 kts | 38° |
| 2026-04-21 14:17 | -12.91069 | -38.30416 | 3961 ft | 177 kts | 38° |
| 2026-04-21 14:18 | -12.89977 | -38.29694 | 3970 ft | 193 kts | 36° |
| 2026-04-21 14:18 | -12.88852 | -38.28944 | 3978 ft | 190 kts | 37° |
| 2026-04-21 14:18 | -12.87754 | -38.28221 | 3977 ft | 186 kts | 35° |
| 2026-04-21 14:18 | -12.86662 | -38.27526 | 3981 ft | 184 kts | 36° |
| 2026-04-21 14:19 | -12.85569 | -38.26838 | 3977 ft | 184 kts | 35° |
| 2026-04-21 14:19 | -12.84479 | -38.26154 | 3975 ft | 183 kts | 34° |
| 2026-04-21 14:19 | -12.83392 | -38.25478 | 3974 ft | 183 kts | 35° |
| 2026-04-21 14:19 | -12.82309 | -38.24800 | 3969 ft | 182 kts | 35° |
| 2026-04-21 14:20 | -12.81226 | -38.24124 | 3968 ft | 182 kts | 35° |
| 2026-04-21 14:20 | -12.80140 | -38.23445 | 3965 ft | 183 kts | 35° |
| 2026-04-21 14:20 | -12.79084 | -38.22791 | 4198 ft | 171 kts | 34° |
| 2026-04-21 14:20 | -12.78089 | -38.22186 | 4480 ft | 163 kts | 35° |
| 2026-04-21 14:21 | -12.77134 | -38.21601 | 4763 ft | 157 kts | 35° |
| 2026-04-21 14:21 | -12.76200 | -38.21031 | 5038 ft | 156 kts | 35° |
| 2026-04-21 14:21 | -12.75274 | -38.20471 | 5313 ft | 154 kts | 34° |
| 2026-04-21 14:21 | -12.74355 | -38.19916 | 5597 ft | 153 kts | 35° |
| 2026-04-21 14:22 | -12.73442 | -38.19361 | 5882 ft | 153 kts | 34° |
| 2026-04-21 14:22 | -12.72520 | -38.18797 | 6175 ft | 155 kts | 35° |
| 2026-04-21 14:22 | -12.71597 | -38.18220 | 6465 ft | 156 kts | 34° |
| 2026-04-21 14:22 | -12.70670 | -38.17635 | 6746 ft | 157 kts | 35° |
| 2026-04-21 14:23 | -12.69733 | -38.17050 | 7024 ft | 159 kts | 32° |
| 2026-04-21 14:23 | -12.68647 | -38.16815 | 7300 ft | 162 kts | 5° |
| 2026-04-21 14:23 | -12.67550 | -38.16605 | 7581 ft | 160 kts | 26° |
| 2026-04-21 14:23 | -12.66600 | -38.16062 | 7859 ft | 151 kts | 38° |
| 2026-04-21 14:24 | -12.65677 | -38.15463 | 8151 ft | 162 kts | 37° |
| 2026-04-21 14:24 | -12.64711 | -38.14832 | 8429 ft | 166 kts | 36° |
| 2026-04-21 14:24 | -12.63728 | -38.14191 | 8736 ft | 168 kts | 34° |
| 2026-04-21 14:24 | -12.62730 | -38.13547 | 9034 ft | 170 kts | 34° |
| 2026-04-21 14:25 | -12.61725 | -38.12892 | 9342 ft | 172 kts | 35° |
| 2026-04-21 14:25 | -12.60711 | -38.12238 | 9645 ft | 173 kts | 35° |
| 2026-04-21 14:25 | -12.59695 | -38.11580 | 9940 ft | 173 kts | 34° |
| 2026-04-21 14:25 | -12.58680 | -38.10921 | 10215 ft | 173 kts | 34° |
| 2026-04-21 14:26 | -12.57663 | -38.10262 | 10494 ft | 174 kts | 34° |
| 2026-04-21 14:26 | -12.56642 | -38.09599 | 10768 ft | 174 kts | 33° |
| 2026-04-21 14:26 | -12.55618 | -38.08936 | 11050 ft | 175 kts | 33° |
| 2026-04-21 14:26 | -12.54599 | -38.08277 | 11331 ft | 176 kts | 33° |
| 2026-04-21 14:27 | -12.53560 | -38.07602 | 11620 ft | 177 kts | 33° |
| 2026-04-21 14:27 | -12.52515 | -38.06925 | 11910 ft | 178 kts | 32° |
| 2026-04-21 14:27 | -12.51467 | -38.06247 | 12203 ft | 179 kts | 32° |
| 2026-04-21 14:27 | -12.50416 | -38.05566 | 12499 ft | 179 kts | 32° |
| 2026-04-21 14:28 | -12.49362 | -38.04882 | 12794 ft | 180 kts | 32° |
| 2026-04-21 14:28 | -12.48305 | -38.04198 | 13095 ft | 180 kts | 32° |
| 2026-04-21 14:28 | -12.47245 | -38.03512 | 13398 ft | 181 kts | 32° |
| 2026-04-21 14:28 | -12.46182 | -38.02824 | 13703 ft | 181 kts | 32° |
| 2026-04-21 14:29 | -12.45117 | -38.02134 | 13983 ft | 181 kts | 31° |
| 2026-04-21 14:29 | -12.44050 | -38.01443 | 14253 ft | 181 kts | 30° |
| 2026-04-21 14:29 | -12.42982 | -38.00752 | 14520 ft | 182 kts | 30° |
| 2026-04-21 14:29 | -12.41913 | -38.00060 | 14795 ft | 182 kts | 30° |
| 2026-04-21 14:30 | -12.40843 | -37.99368 | 15074 ft | 182 kts | 30° |
| 2026-04-21 14:30 | -12.39770 | -37.98675 | 15354 ft | 183 kts | 29° |
| 2026-04-21 14:30 | -12.38695 | -37.97977 | 15633 ft | 183 kts | 30° |
| 2026-04-21 14:30 | -12.37617 | -37.97281 | 15921 ft | 183 kts | 30° |
| 2026-04-21 14:31 | -12.36538 | -37.96585 | 16213 ft | 183 kts | 28° |
| 2026-04-21 14:31 | -12.35455 | -37.95888 | 16513 ft | 184 kts | 28° |
| 2026-04-21 14:31 | -12.34372 | -37.95182 | 16799 ft | 185 kts | 27° |
| 2026-04-21 14:31 | -12.33271 | -37.94471 | 16960 ft | 193 kts | 29° |
| 2026-04-21 14:32 | -12.32100 | -37.93715 | 16972 ft | 204 kts | 28° |
| 2026-04-21 14:32 | -12.30871 | -37.92918 | 16979 ft | 213 kts | 28° |
| 2026-04-21 14:32 | -12.29597 | -37.92095 | 16977 ft | 219 kts | 29° |
| 2026-04-21 14:32 | -12.28298 | -37.91256 | 16977 ft | 223 kts | 29° |
| 2026-04-21 14:33 | -12.26982 | -37.90408 | 16976 ft | 225 kts | 29° |
| 2026-04-21 14:33 | -12.25660 | -37.89552 | 16976 ft | 224 kts | 30° |
| 2026-04-21 14:33 | -12.24344 | -37.88698 | 16973 ft | 223 kts | 30° |
| 2026-04-21 14:33 | -12.23039 | -37.87853 | 16973 ft | 220 kts | 30° |
| 2026-04-21 14:34 | -12.21750 | -37.87021 | 16971 ft | 218 kts | 29° |
| 2026-04-21 14:34 | -12.20472 | -37.86198 | 16969 ft | 217 kts | 29° |
| 2026-04-21 14:34 | -12.19200 | -37.85374 | 16967 ft | 216 kts | 30° |
| 2026-04-21 14:34 | -12.17933 | -37.84555 | 16965 ft | 215 kts | 30° |
| 2026-04-21 14:35 | -12.16666 | -37.83739 | 16967 ft | 215 kts | 28° |
| 2026-04-21 14:35 | -12.15398 | -37.82924 | 16965 ft | 215 kts | 30° |
| 2026-04-21 14:35 | -12.14132 | -37.82104 | 16966 ft | 215 kts | 29° |
| 2026-04-21 14:35 | -12.12866 | -37.81285 | 16967 ft | 216 kts | 29° |
| 2026-04-21 14:36 | -12.11598 | -37.80467 | 16966 ft | 216 kts | 29° |
| 2026-04-21 14:36 | -12.10329 | -37.79647 | 16966 ft | 216 kts | 30° |
| 2026-04-21 14:36 | -12.09063 | -37.78830 | 16966 ft | 215 kts | 28° |
| 2026-04-21 14:36 | -12.07815 | -37.78026 | 16965 ft | 215 kts | 29° |
| 2026-04-21 14:37 | -12.06552 | -37.77212 | 16963 ft | 214 kts | 30° |
| 2026-04-21 14:37 | -12.05275 | -37.76386 | 16963 ft | 215 kts | 28° |
| 2026-04-21 14:37 | -12.04029 | -37.75585 | 16962 ft | 214 kts | 28° |
| 2026-04-21 14:37 | -12.02770 | -37.74773 | 16962 ft | 214 kts | 30° |
| 2026-04-21 14:38 | -12.01493 | -37.73953 | 16964 ft | 214 kts | 30° |
| 2026-04-21 14:38 | -12.00253 | -37.73150 | 16965 ft | 214 kts | 28° |
| 2026-04-21 14:38 | -11.98996 | -37.72339 | 16965 ft | 214 kts | 29° |
| 2026-04-21 14:38 | -11.97738 | -37.71528 | 16968 ft | 214 kts | 30° |
| 2026-04-21 14:39 | -11.96479 | -37.70713 | 16970 ft | 214 kts | 30° |
| 2026-04-21 14:39 | -11.95216 | -37.69902 | 16969 ft | 215 kts | 29° |
| 2026-04-21 14:39 | -11.93944 | -37.69085 | 16970 ft | 217 kts | 29° |
| 2026-04-21 14:39 | -11.92666 | -37.68261 | 16975 ft | 217 kts | 30° |
| 2026-04-21 14:40 | -11.91384 | -37.67437 | 16966 ft | 218 kts | 29° |
| 2026-04-21 14:40 | -11.90097 | -37.66610 | 16968 ft | 219 kts | 29° |
| 2026-04-21 14:40 | -11.88806 | -37.65781 | 16970 ft | 220 kts | 29° |
| 2026-04-21 14:40 | -11.87511 | -37.64949 | 16971 ft | 220 kts | 30° |
| 2026-04-21 14:41 | -11.86214 | -37.64113 | 16969 ft | 221 kts | 30° |
| 2026-04-21 14:41 | -11.84916 | -37.63279 | 16971 ft | 221 kts | 29° |
| 2026-04-21 14:41 | -11.83617 | -37.62444 | 16971 ft | 221 kts | 30° |
| 2026-04-21 14:41 | -11.82318 | -37.61607 | 16970 ft | 221 kts | 28° |
| 2026-04-21 14:42 | -11.81019 | -37.60773 | 16970 ft | 221 kts | 29° |
| 2026-04-21 14:42 | -11.79721 | -37.59940 | 16970 ft | 220 kts | 30° |
| 2026-04-21 14:42 | -11.78424 | -37.59108 | 16970 ft | 220 kts | 29° |
| 2026-04-21 14:42 | -11.77128 | -37.58276 | 16969 ft | 220 kts | 30° |
| 2026-04-21 14:43 | -11.75832 | -37.57442 | 16970 ft | 220 kts | 29° |
| 2026-04-21 14:43 | -11.74540 | -37.56613 | 16970 ft | 220 kts | 29° |
| 2026-04-21 14:43 | -11.73245 | -37.55780 | 16973 ft | 220 kts | 29° |
| 2026-04-21 14:43 | -11.71948 | -37.54947 | 16970 ft | 220 kts | 29° |
| 2026-04-21 14:44 | -11.70653 | -37.54116 | 16972 ft | 220 kts | 30° |
| 2026-04-21 14:44 | -11.69355 | -37.53283 | 16971 ft | 220 kts | 30° |
| 2026-04-21 14:44 | -11.68058 | -37.52451 | 16972 ft | 220 kts | 29° |
| 2026-04-21 14:44 | -11.66760 | -37.51619 | 16970 ft | 220 kts | 29° |
| 2026-04-21 14:45 | -11.65463 | -37.50785 | 16970 ft | 221 kts | 28° |
| 2026-04-21 14:45 | -11.64604 | -37.50234 | 16968 ft | 220 kts | 30° |
| 2026-04-21 14:45 | -11.63308 | -37.49405 | 16968 ft | 220 kts | 29° |
| 2026-04-21 14:45 | -11.62016 | -37.48575 | 16969 ft | 219 kts | 29° |
| 2026-04-21 14:46 | -11.60728 | -37.47748 | 16969 ft | 219 kts | 29° |
| 2026-04-21 14:46 | -11.59439 | -37.46923 | 16973 ft | 219 kts | 30° |
| 2026-04-21 14:46 | -11.58153 | -37.46095 | 16974 ft | 219 kts | 30° |
| 2026-04-21 14:46 | -11.56863 | -37.45268 | 16972 ft | 219 kts | 30° |
| 2026-04-21 14:47 | -11.55574 | -37.44443 | 16972 ft | 219 kts | 31° |
| 2026-04-21 14:47 | -11.54285 | -37.43615 | 16972 ft | 219 kts | 29° |
| 2026-04-21 14:47 | -11.52997 | -37.42791 | 16974 ft | 219 kts | 29° |
| 2026-04-21 14:47 | -11.51710 | -37.41966 | 16972 ft | 219 kts | 30° |
| 2026-04-21 14:48 | -11.50421 | -37.41143 | 16973 ft | 219 kts | 30° |
| 2026-04-21 14:48 | -11.49134 | -37.40316 | 16971 ft | 219 kts | 31° |
| 2026-04-21 14:48 | -11.47847 | -37.39490 | 16974 ft | 218 kts | 29° |
| 2026-04-21 14:48 | -11.46560 | -37.38666 | 16974 ft | 219 kts | 30° |
| 2026-04-21 14:49 | -11.45271 | -37.37840 | 16972 ft | 219 kts | 30° |
| 2026-04-21 14:49 | -11.43982 | -37.37015 | 16971 ft | 219 kts | 30° |
| 2026-04-21 14:49 | -11.42694 | -37.36191 | 16974 ft | 219 kts | 30° |
| 2026-04-21 14:49 | -11.41407 | -37.35365 | 16972 ft | 219 kts | 31° |
| 2026-04-21 14:50 | -11.40117 | -37.34539 | 16971 ft | 219 kts | 29° |
| 2026-04-21 14:50 | -11.38828 | -37.33714 | 16973 ft | 219 kts | 30° |
| 2026-04-21 14:50 | -11.37541 | -37.32891 | 16970 ft | 218 kts | 30° |
| 2026-04-21 14:50 | -11.36257 | -37.32069 | 16971 ft | 218 kts | 31° |
| 2026-04-21 14:51 | -11.34972 | -37.31246 | 16973 ft | 218 kts | 30° |
| 2026-04-21 14:51 | -11.33689 | -37.30426 | 16970 ft | 217 kts | 30° |
| 2026-04-21 14:51 | -11.32426 | -37.29618 | 16969 ft | 217 kts | 31° |
| 2026-04-21 14:51 | -11.31144 | -37.28797 | 16973 ft | 218 kts | 31° |
| 2026-04-21 14:52 | -11.29863 | -37.27976 | 16971 ft | 217 kts | 30° |
| 2026-04-21 14:52 | -11.28582 | -37.27157 | 16966 ft | 217 kts | 30° |
| 2026-04-21 14:52 | -11.27300 | -37.26338 | 16968 ft | 218 kts | 31° |
| 2026-04-21 14:52 | -11.26017 | -37.25517 | 16964 ft | 218 kts | 30° |
| 2026-04-21 14:53 | -11.24735 | -37.24697 | 16974 ft | 217 kts | 30° |
| 2026-04-21 14:53 | -11.23453 | -37.23878 | 16973 ft | 218 kts | 31° |
| 2026-04-21 14:53 | -11.22171 | -37.23059 | 16973 ft | 218 kts | 31° |
| 2026-04-21 14:53 | -11.20891 | -37.22239 | 16979 ft | 217 kts | 30° |
| 2026-04-21 14:54 | -11.19615 | -37.21424 | 16981 ft | 216 kts | 31° |
| 2026-04-21 14:54 | -11.18339 | -37.20608 | 16982 ft | 217 kts | 31° |
| 2026-04-21 14:54 | -11.17064 | -37.19794 | 16978 ft | 216 kts | 31° |
| 2026-04-21 14:54 | -11.15789 | -37.18979 | 16983 ft | 216 kts | 30° |
| 2026-04-21 14:55 | -11.14512 | -37.18164 | 16982 ft | 216 kts | 30° |
| 2026-04-21 14:55 | -11.13235 | -37.17347 | 16986 ft | 217 kts | 30° |
| 2026-04-21 14:55 | -11.11953 | -37.16530 | 16979 ft | 217 kts | 31° |
| 2026-04-21 14:55 | -11.10677 | -37.15714 | 16985 ft | 216 kts | 32° |
| 2026-04-21 14:56 | -11.09403 | -37.14898 | 16988 ft | 216 kts | 31° |
| 2026-04-21 14:56 | -11.08126 | -37.14083 | 16993 ft | 217 kts | 31° |
| 2026-04-21 14:56 | -11.06849 | -37.13268 | 16995 ft | 217 kts | 31° |
| 2026-04-21 14:56 | -11.05573 | -37.12454 | 16991 ft | 217 kts | 31° |
| 2026-04-21 14:57 | -11.04295 | -37.11638 | 16994 ft | 217 kts | 31° |
| 2026-04-21 14:57 | -11.03019 | -37.10823 | 16992 ft | 217 kts | 32° |
| 2026-04-21 14:57 | -11.01744 | -37.10009 | 16991 ft | 216 kts | 31° |
| 2026-04-21 14:57 | -11.00472 | -37.09198 | 16992 ft | 216 kts | 31° |
| 2026-04-21 14:58 | -10.99196 | -37.08383 | 16990 ft | 217 kts | 32° |
| 2026-04-21 14:58 | -10.97941 | -37.07537 | 16993 ft | 217 kts | 38° |
| 2026-04-21 14:58 | -10.96807 | -37.06526 | 16991 ft | 217 kts | 41° |
| 2026-04-21 14:58 | -10.95673 | -37.05513 | 16993 ft | 217 kts | 40° |
| 2026-04-21 14:59 | -10.94534 | -37.04506 | 16993 ft | 217 kts | 40° |
| 2026-04-21 14:59 | -10.93396 | -37.03502 | 16990 ft | 216 kts | 40° |
| 2026-04-21 14:59 | -10.92260 | -37.02499 | 16994 ft | 216 kts | 40° |
| 2026-04-21 14:59 | -10.91122 | -37.01493 | 16992 ft | 217 kts | 40° |
| 2026-04-21 15:00 | -10.89985 | -37.00488 | 16982 ft | 217 kts | 40° |
| 2026-04-21 15:00 | -10.88850 | -36.99485 | 16983 ft | 216 kts | 40° |
| 2026-04-21 15:00 | -10.87713 | -36.98481 | 16987 ft | 217 kts | 40° |
| 2026-04-21 15:00 | -10.86577 | -36.97478 | 16981 ft | 216 kts | 40° |
| 2026-04-21 15:01 | -10.85443 | -36.96476 | 16985 ft | 215 kts | 41° |
| 2026-04-21 15:01 | -10.84313 | -36.95477 | 16986 ft | 215 kts | 40° |
| 2026-04-21 15:01 | -10.83181 | -36.94478 | 16984 ft | 216 kts | 40° |
| 2026-04-21 15:01 | -10.82049 | -36.93478 | 16967 ft | 215 kts | 40° |
| 2026-04-21 15:02 | -10.80919 | -36.92480 | 16969 ft | 215 kts | 40° |
| 2026-04-21 15:02 | -10.79789 | -36.91483 | 16969 ft | 215 kts | 40° |
| 2026-04-21 15:02 | -10.78659 | -36.90484 | 16970 ft | 215 kts | 41° |
| 2026-04-21 15:02 | -10.77528 | -36.89486 | 16963 ft | 215 kts | 40° |
| 2026-04-21 15:03 | -10.76399 | -36.88489 | 16971 ft | 215 kts | 40° |
| 2026-04-21 15:03 | -10.75268 | -36.87492 | 16971 ft | 215 kts | 40° |
| 2026-04-21 15:03 | -10.74137 | -36.86494 | 16972 ft | 215 kts | 40° |
| 2026-04-21 15:03 | -10.73007 | -36.85497 | 16965 ft | 215 kts | 40° |
| 2026-04-21 15:04 | -10.71878 | -36.84501 | 16975 ft | 215 kts | 40° |
| 2026-04-21 15:04 | -10.70746 | -36.83503 | 16975 ft | 215 kts | 40° |
| 2026-04-21 15:04 | -10.69616 | -36.82505 | 16976 ft | 215 kts | 40° |
| 2026-04-21 15:04 | -10.68487 | -36.81510 | 16968 ft | 215 kts | 40° |
| 2026-04-21 15:05 | -10.67357 | -36.80513 | 16974 ft | 215 kts | 40° |
| 2026-04-21 15:05 | -10.65100 | -36.78522 | 17004 ft | 215 kts | 40° |
| 2026-04-21 15:05 | -10.63970 | -36.77528 | 17003 ft | 215 kts | 40° |
| 2026-04-21 15:06 | -10.62839 | -36.76530 | 17003 ft | 215 kts | 40° |
| 2026-04-21 15:06 | -10.61707 | -36.75531 | 17010 ft | 216 kts | 40° |
| 2026-04-21 15:06 | -10.60563 | -36.74523 | 17013 ft | 219 kts | 40° |
| 2026-04-21 15:06 | -10.59410 | -36.73509 | 17007 ft | 219 kts | 40° |
| 2026-04-21 15:07 | -10.58261 | -36.72495 | 17005 ft | 218 kts | 41° |
| 2026-04-21 15:07 | -10.57119 | -36.71489 | 17005 ft | 217 kts | 41° |
| 2026-04-21 15:07 | -10.55980 | -36.70486 | 17004 ft | 217 kts | 41° |
| 2026-04-21 15:07 | -10.54857 | -36.69497 | 17004 ft | 216 kts | 41° |
| 2026-04-21 15:08 | -10.53720 | -36.68495 | 17003 ft | 216 kts | 41° |
| 2026-04-21 15:08 | -10.52585 | -36.67496 | 17002 ft | 216 kts | 41° |
| 2026-04-21 15:08 | -10.51449 | -36.66495 | 17001 ft | 216 kts | 41° |
| 2026-04-21 15:08 | -10.50312 | -36.65494 | 17001 ft | 216 kts | 41° |
| 2026-04-21 15:09 | -10.49176 | -36.64493 | 17001 ft | 216 kts | 41° |
| 2026-04-21 15:09 | -10.48040 | -36.63495 | 17001 ft | 216 kts | 41° |
| 2026-04-21 15:09 | -10.46904 | -36.62494 | 17001 ft | 216 kts | 41° |
| 2026-04-21 15:09 | -10.45768 | -36.61495 | 17001 ft | 216 kts | 41° |
| 2026-04-21 15:10 | -10.44633 | -36.60496 | 17002 ft | 216 kts | 41° |
| 2026-04-21 15:10 | -10.43499 | -36.59498 | 17001 ft | 216 kts | 41° |
| 2026-04-21 15:10 | -10.42361 | -36.58497 | 17005 ft | 217 kts | 41° |
| 2026-04-21 15:10 | -10.41220 | -36.57492 | 17006 ft | 218 kts | 41° |
| 2026-04-21 15:11 | -10.40073 | -36.56483 | 17005 ft | 219 kts | 41° |
| 2026-04-21 15:11 | -10.38922 | -36.55471 | 17006 ft | 218 kts | 41° |
| 2026-04-21 15:11 | -10.37775 | -36.54462 | 17005 ft | 218 kts | 41° |
| 2026-04-21 15:11 | -10.36633 | -36.53458 | 17005 ft | 217 kts | 41° |
| 2026-04-21 15:12 | -10.35491 | -36.52454 | 17002 ft | 217 kts | 41° |
| 2026-04-21 15:12 | -10.34351 | -36.51451 | 17002 ft | 217 kts | 41° |
| 2026-04-21 15:12 | -10.33213 | -36.50450 | 17003 ft | 216 kts | 41° |
| 2026-04-21 15:12 | -10.32076 | -36.49451 | 17005 ft | 216 kts | 41° |
| 2026-04-21 15:13 | -10.30939 | -36.48452 | 17005 ft | 216 kts | 41° |
| 2026-04-21 15:13 | -10.29801 | -36.47452 | 17005 ft | 216 kts | 41° |
| 2026-04-21 15:13 | -10.28667 | -36.46454 | 17005 ft | 216 kts | 41° |
| 2026-04-21 15:13 | -10.27530 | -36.45456 | 17005 ft | 216 kts | 41° |
| 2026-04-21 15:14 | -10.26392 | -36.44455 | 17006 ft | 216 kts | 41° |
| 2026-04-21 15:14 | -10.25254 | -36.43456 | 17006 ft | 216 kts | 41° |
| 2026-04-21 15:14 | -10.24117 | -36.42457 | 17005 ft | 216 kts | 41° |
| 2026-04-21 15:14 | -10.22883 | -36.41587 | 17004 ft | 217 kts | 28° |
| 2026-04-21 15:15 | -10.21530 | -36.40913 | 17008 ft | 216 kts | 27° |
| 2026-04-21 15:15 | -10.20217 | -36.40210 | 17008 ft | 216 kts | 30° |
| 2026-04-21 15:15 | -10.18891 | -36.39445 | 17008 ft | 216 kts | 30° |
| 2026-04-21 15:15 | -10.17580 | -36.38690 | 17008 ft | 217 kts | 30° |
| 2026-04-21 15:16 | -10.16267 | -36.37943 | 17007 ft | 216 kts | 30° |
| 2026-04-21 15:16 | -10.14954 | -36.37196 | 17006 ft | 216 kts | 30° |
| 2026-04-21 15:16 | -10.13641 | -36.36448 | 17005 ft | 217 kts | 30° |
| 2026-04-21 15:16 | -10.12327 | -36.35700 | 17006 ft | 216 kts | 30° |
| 2026-04-21 15:17 | -10.11015 | -36.34952 | 17006 ft | 216 kts | 29° |
| 2026-04-21 15:17 | -10.09701 | -36.34205 | 17005 ft | 217 kts | 29° |
| 2026-04-21 15:17 | -10.08405 | -36.33467 | 17005 ft | 217 kts | 30° |
| 2026-04-21 15:17 | -10.07092 | -36.32719 | 17006 ft | 216 kts | 30° |
| 2026-04-21 15:18 | -10.05779 | -36.31972 | 17007 ft | 216 kts | 30° |
| 2026-04-21 15:18 | -10.04467 | -36.31225 | 17007 ft | 216 kts | 30° |
| 2026-04-21 15:18 | -10.03155 | -36.30478 | 17008 ft | 216 kts | 30° |
| 2026-04-21 15:18 | -10.01845 | -36.29733 | 17008 ft | 215 kts | 30° |
| 2026-04-21 15:19 | -10.00538 | -36.28989 | 17009 ft | 215 kts | 30° |
| 2026-04-21 15:19 | -9.99305 | -36.28284 | 17291 ft | 191 kts | 30° |
| 2026-04-21 15:19 | -9.98218 | -36.27667 | 17690 ft | 169 kts | 29° |
| 2026-04-21 15:19 | -9.97208 | -36.27099 | 18105 ft | 166 kts | 29° |
| 2026-04-21 15:20 | -9.96165 | -36.26506 | 18170 ft | 181 kts | 30° |
| 2026-04-21 15:20 | -9.95016 | -36.25840 | 17701 ft | 197 kts | 30° |
| 2026-04-21 15:20 | -9.93795 | -36.25144 | 17240 ft | 206 kts | 30° |
| 2026-04-21 15:20 | -9.92524 | -36.24426 | 16770 ft | 211 kts | 30° |
| 2026-04-21 15:21 | -9.91239 | -36.23694 | 16260 ft | 213 kts | 31° |
| 2026-04-21 15:21 | -9.89946 | -36.22961 | 15763 ft | 213 kts | 31° |
| 2026-04-21 15:21 | -9.88650 | -36.22226 | 15271 ft | 213 kts | 31° |
| 2026-04-21 15:21 | -9.87357 | -36.21490 | 14790 ft | 213 kts | 32° |
| 2026-04-21 15:22 | -9.86062 | -36.20754 | 14310 ft | 214 kts | 31° |
| 2026-04-21 15:22 | -9.84762 | -36.20016 | 13843 ft | 214 kts | 31° |
| 2026-04-21 15:22 | -9.83462 | -36.19275 | 13317 ft | 214 kts | 32° |
| 2026-04-21 15:22 | -9.82162 | -36.18537 | 12795 ft | 214 kts | 32° |
| 2026-04-21 15:23 | -9.80865 | -36.17801 | 12279 ft | 213 kts | 31° |
| 2026-04-21 15:23 | -9.79573 | -36.17067 | 11774 ft | 212 kts | 32° |
| 2026-04-21 15:23 | -9.78287 | -36.16335 | 11274 ft | 211 kts | 31° |
| 2026-04-21 15:23 | -9.77010 | -36.15610 | 10784 ft | 210 kts | 32° |
| 2026-04-21 15:24 | -9.75741 | -36.14890 | 10300 ft | 208 kts | 32° |
| 2026-04-21 15:24 | -9.74480 | -36.14174 | 9823 ft | 207 kts | 32° |
| 2026-04-21 15:24 | -9.73226 | -36.13461 | 9291 ft | 206 kts | 32° |
| 2026-04-21 15:24 | -9.71982 | -36.12755 | 8774 ft | 205 kts | 32° |
| 2026-04-21 15:25 | -9.70745 | -36.12053 | 8259 ft | 203 kts | 32° |
| 2026-04-21 15:25 | -9.69516 | -36.11355 | 7755 ft | 202 kts | 32° |
| 2026-04-21 15:25 | -9.68293 | -36.10659 | 7262 ft | 201 kts | 32° |
| 2026-04-21 15:25 | -9.67073 | -36.09967 | 6771 ft | 200 kts | 32° |
| 2026-04-21 15:26 | -9.65860 | -36.09280 | 6278 ft | 199 kts | 31° |
| 2026-04-21 15:26 | -9.64666 | -36.08603 | 5894 ft | 193 kts | 32° |
| 2026-04-21 15:26 | -9.63516 | -36.07947 | 5557 ft | 187 kts | 31° |
| 2026-04-21 15:26 | -9.62399 | -36.07314 | 5260 ft | 181 kts | 31° |
| 2026-04-21 15:27 | -9.61303 | -36.06695 | 4975 ft | 180 kts | 31° |
| 2026-04-21 15:27 | -9.60220 | -36.06081 | 4748 ft | 176 kts | 33° |
| 2026-04-21 15:27 | -9.59168 | -36.05485 | 4575 ft | 171 kts | 33° |
| 2026-04-21 15:27 | -9.58140 | -36.04900 | 4392 ft | 168 kts | 31° |
| 2026-04-21 15:28 | -9.57131 | -36.04327 | 4214 ft | 165 kts | 31° |
| 2026-04-21 15:28 | -9.56133 | -36.03760 | 4036 ft | 165 kts | 32° |
| 2026-04-21 15:28 | -9.55152 | -36.03152 | 3799 ft | 166 kts | 32° |
| 2026-04-21 15:28 | -9.54145 | -36.02564 | 3566 ft | 168 kts | 31° |
| 2026-04-21 15:29 | -9.53134 | -36.01969 | 3327 ft | 169 kts | 33° |
| 2026-04-21 15:29 | -9.52117 | -36.01362 | 3086 ft | 171 kts | 32° |
| 2026-04-21 15:29 | -9.51097 | -36.00753 | 2853 ft | 170 kts | 33° |
| 2026-04-21 15:29 | -9.50089 | -36.00136 | 2602 ft | 167 kts | 33° |
| 2026-04-21 15:30 | -9.49088 | -35.99545 | 2350 ft | 167 kts | 32° |
| 2026-04-21 15:30 | -9.48473 | -35.99103 | 2214 ft | 159 kts | 47° |
| 2026-04-21 15:30 | -9.47895 | -35.98216 | 2027 ft | 148 kts | 74° |
| 2026-04-21 15:30 | -9.47732 | -35.97257 | 2000 ft | 131 kts | 96° |
| 2026-04-21 15:31 | -9.47879 | -35.96384 | 1993 ft | 121 kts | 102° |
| 2026-04-21 15:31 | -9.48014 | -35.95564 | 1995 ft | 116 kts | 104° |
| 2026-04-21 15:31 | -9.48166 | -35.94770 | 1993 ft | 113 kts | 105° |
| 2026-04-21 15:31 | -9.48308 | -35.94005 | 1998 ft | 108 kts | 106° |
| 2026-04-21 15:32 | -9.48448 | -35.93258 | 1994 ft | 109 kts | 104° |
| 2026-04-21 15:32 | -9.48588 | -35.92497 | 1994 ft | 111 kts | 104° |
| 2026-04-21 15:32 | -9.48734 | -35.91731 | 1990 ft | 111 kts | 105° |
| 2026-04-21 15:32 | -9.48876 | -35.90966 | 1994 ft | 110 kts | 105° |
| 2026-04-21 15:33 | -9.49019 | -35.90196 | 1997 ft | 112 kts | 105° |
| 2026-04-21 15:33 | -9.49168 | -35.89400 | 1996 ft | 119 kts | 106° |
| 2026-04-21 15:33 | -9.49318 | -35.88590 | 1963 ft | 117 kts | 106° |
| 2026-04-21 15:33 | -9.49476 | -35.87755 | 1825 ft | 126 kts | 105° |
| 2026-04-21 15:34 | -9.49644 | -35.86859 | 1650 ft | 131 kts | 104° |
| 2026-04-21 15:34 | -9.49798 | -35.86009 | 1486 ft | 112 kts | 105° |
| 2026-04-21 15:34 | -9.49933 | -35.85306 | 1349 ft | 93 kts | 103° |
| 2026-04-21 15:34 | -9.50055 | -35.84644 | 1247 ft | 102 kts | 107° |
| 2026-04-21 15:35 | -9.50189 | -35.83935 | 1121 ft | 102 kts | 103° |
| 2026-04-21 15:35 | -9.50329 | -35.83217 | 987 ft | 101 kts | 103° |
| 2026-04-21 15:35 | -9.50449 | -35.82556 | 873 ft | 95 kts | 105° |
| 2026-04-21 15:35 | -9.50559 | -35.81918 | 744 ft | 84 kts | 102° |
| 2026-04-21 15:36 | -9.50671 | -35.81367 | 651 ft | 77 kts | 105° |
| 2026-04-21 15:36 | -9.50768 | -35.80839 | 541 ft | 77 kts | 105° |
| 2026-04-21 15:36 | -9.50869 | -35.80314 | 450 ft | 75 kts | 103° |
| 2026-04-21 15:36 | -9.50956 | -35.79812 | 403 ft | 66 kts | 103° |
| 2026-04-21 15:37 | -9.51031 | -35.79455 | 394 ft | 43 kts | 100° |
| 2026-04-21 15:37 | -9.51080 | -35.79196 | 393 ft | 34 kts | 102° |
| 2026-04-21 15:37 | -9.51145 | -35.78977 | 393 ft | 31 kts | 118° |
| 2026-04-21 15:37 | -9.51259 | -35.78825 | 395 ft | 21 kts | 138° |
| 2026-04-21 15:38 | -9.51299 | -35.78889 | 395 ft | 20 kts | 278° |
| 2026-04-21 15:38 | -9.51266 | -35.79060 | 395 ft | 30 kts | 281° |
| 2026-04-21 15:38 | -9.51225 | -35.79287 | 395 ft | 35 kts | 281° |
| 2026-04-21 15:38 | -9.51176 | -35.79550 | 395 ft | 41 kts | 280° |
| 2026-04-21 15:39 | -9.51163 | -35.79739 | 395 ft | 13 kts | 192° |
| 2026-04-21 15:39 | -9.51269 | -35.79749 | 395 ft | 11 kts | 119° |
| 2026-04-21 15:39 | -9.51284 | -35.79743 | 395 ft | 0 kts | 286° |
| 2026-04-21 15:40 | -9.51284 | -35.79742 | 395 ft | 0 kts | 286° |